BAW8648 LOWW-LHBP
Flight info
| Callsign | BAW8648 |
|---|---|
| Flight time | 0h 31m |
| Altitude | 15000 |
| Route | ADAMA2C ADAMA Z647 ANEXA ANEXA2H |
| Aircraft | A21N/M-SDE3FGIJ1LRWXYZ/SB1G1 |
Departure
| Time | 2026-04-24 09:31 |
|---|---|
| Airport | Vienna International Airport (LOWW) |
Arrival
| Time | 2026-04-24 10:02 |
|---|---|
| Airport | Budapest Liszt Ferenc International Airport (LHBP) |
| Time | Latitude | Longitude | Altitude | Speed | Heading |
|---|---|---|---|---|---|
| 2026-04-24 08:52 | 48.11781 | 16.56189 | 615 ft | 0 kts | 343° |
| 2026-04-24 09:19 | 48.11777 | 16.56191 | 615 ft | 4 kts | 345° |
| 2026-04-24 09:19 | 48.11751 | 16.56199 | 617 ft | 4 kts | 356° |
| 2026-04-24 09:20 | 48.11724 | 16.56197 | 615 ft | 4 kts | 9° |
| 2026-04-24 09:20 | 48.11698 | 16.56187 | 619 ft | 4 kts | 26° |
| 2026-04-24 09:20 | 48.11677 | 16.56164 | 616 ft | 4 kts | 56° |
| 2026-04-24 09:20 | 48.11672 | 16.56137 | 615 ft | 2 kts | 115° |
| 2026-04-24 09:21 | 48.11673 | 16.56135 | 622 ft | 2 kts | 116° |
| 2026-04-24 09:23 | 48.11672 | 16.56138 | 615 ft | 1 kts | 116° |
| 2026-04-24 09:23 | 48.11663 | 16.56162 | 621 ft | 4 kts | 121° |
| 2026-04-24 09:24 | 48.11634 | 16.56196 | 615 ft | 7 kts | 166° |
| 2026-04-24 09:24 | 48.11578 | 16.56185 | 615 ft | 9 kts | 165° |
| 2026-04-24 09:24 | 48.11536 | 16.56270 | 615 ft | 12 kts | 115° |
| 2026-04-24 09:24 | 48.11498 | 16.56389 | 617 ft | 14 kts | 116° |
| 2026-04-24 09:25 | 48.11453 | 16.56526 | 615 ft | 16 kts | 116° |
| 2026-04-24 09:25 | 48.11403 | 16.56679 | 624 ft | 17 kts | 116° |
| 2026-04-24 09:25 | 48.11348 | 16.56849 | 622 ft | 19 kts | 116° |
| 2026-04-24 09:25 | 48.11287 | 16.57034 | 628 ft | 21 kts | 116° |
| 2026-04-24 09:26 | 48.11223 | 16.57230 | 621 ft | 19 kts | 116° |
| 2026-04-24 09:26 | 48.11169 | 16.57398 | 620 ft | 18 kts | 116° |
| 2026-04-24 09:26 | 48.11119 | 16.57549 | 622 ft | 13 kts | 116° |
| 2026-04-24 09:26 | 48.11090 | 16.57631 | 617 ft | 7 kts | 131° |
| 2026-04-24 09:27 | 48.11050 | 16.57650 | 615 ft | 6 kts | 195° |
| 2026-04-24 09:27 | 48.11024 | 16.57633 | 615 ft | 0 kts | 206° |
| 2026-04-24 09:29 | 48.11023 | 16.57633 | 615 ft | 0 kts | 206° |
| 2026-04-24 09:29 | 48.11008 | 16.57622 | 624 ft | 4 kts | 206° |
| 2026-04-24 09:30 | 48.10970 | 16.57594 | 619 ft | 8 kts | 206° |
| 2026-04-24 09:30 | 48.10927 | 16.57535 | 623 ft | 10 kts | 257° |
| 2026-04-24 09:30 | 48.10950 | 16.57423 | 623 ft | 16 kts | 296° |
| 2026-04-24 09:30 | 48.11089 | 16.56999 | 621 ft | 80 kts | 296° |
| 2026-04-24 09:31 | 48.11423 | 16.55972 | 619 ft | 137 kts | 296° |
| 2026-04-24 09:31 | 48.11902 | 16.54493 | 655 ft | 175 kts | 296° |
| 2026-04-24 09:31 | 48.12420 | 16.52884 | 1297 ft | 168 kts | 295° |
| 2026-04-24 09:31 | 48.12522 | 16.51183 | 1980 ft | 171 kts | 252° |
| 2026-04-24 09:32 | 48.11678 | 16.49844 | 2410 ft | 196 kts | 212° |
| 2026-04-24 09:32 | 48.10346 | 16.48947 | 2795 ft | 227 kts | 201° |
| 2026-04-24 09:32 | 48.08710 | 16.48313 | 3168 ft | 258 kts | 194° |
| 2026-04-24 09:32 | 48.06857 | 16.47961 | 3803 ft | 275 kts | 185° |
| 2026-04-24 09:33 | 48.04928 | 16.48034 | 4693 ft | 280 kts | 179° |
| 2026-04-24 09:33 | 48.02971 | 16.48268 | 5565 ft | 285 kts | 177° |
| 2026-04-24 09:33 | 48.00985 | 16.48568 | 6431 ft | 289 kts | 176° |
| 2026-04-24 09:33 | 47.98970 | 16.48914 | 7301 ft | 294 kts | 174° |
| 2026-04-24 09:34 | 47.97002 | 16.49840 | 8092 ft | 302 kts | 150° |
| 2026-04-24 09:34 | 47.95478 | 16.51937 | 8859 ft | 306 kts | 121° |
| 2026-04-24 09:34 | 47.94733 | 16.54868 | 9638 ft | 303 kts | 92° |
| 2026-04-24 09:34 | 47.94907 | 16.57946 | 10399 ft | 301 kts | 69° |
| 2026-04-24 09:35 | 47.95633 | 16.60964 | 10797 ft | 320 kts | 64° |
| 2026-04-24 09:35 | 47.96474 | 16.64170 | 11134 ft | 341 kts | 65° |
| 2026-04-24 09:35 | 47.97314 | 16.67555 | 11733 ft | 352 kts | 66° |
| 2026-04-24 09:35 | 47.97862 | 16.69844 | 12251 ft | 355 kts | 66° |
| 2026-04-24 09:36 | 47.98683 | 16.73331 | 13083 ft | 357 kts | 67° |
| 2026-04-24 09:36 | 47.99465 | 16.76866 | 13885 ft | 362 kts | 71° |
| 2026-04-24 09:36 | 47.99867 | 16.80617 | 14653 ft | 368 kts | 81° |
| 2026-04-24 09:36 | 48.00081 | 16.84441 | 15389 ft | 371 kts | 82° |
| 2026-04-24 09:37 | 48.00280 | 16.88314 | 16074 ft | 375 kts | 81° |
| 2026-04-24 09:37 | 48.00487 | 16.92217 | 16696 ft | 379 kts | 81° |
| 2026-04-24 09:37 | 48.00702 | 16.96156 | 17023 ft | 380 kts | 81° |
| 2026-04-24 09:37 | 48.00915 | 17.00044 | 17108 ft | 369 kts | 81° |
| 2026-04-24 09:38 | 48.01054 | 17.03818 | 17116 ft | 370 kts | 87° |
| 2026-04-24 09:38 | 48.00850 | 17.07668 | 17117 ft | 372 kts | 92° |
| 2026-04-24 09:38 | 48.00551 | 17.11516 | 17115 ft | 373 kts | 92° |
| 2026-04-24 09:38 | 48.00241 | 17.15359 | 17112 ft | 373 kts | 92° |
| 2026-04-24 09:39 | 47.99935 | 17.19207 | 17111 ft | 373 kts | 92° |
| 2026-04-24 09:39 | 47.99634 | 17.23052 | 17113 ft | 371 kts | 92° |
| 2026-04-24 09:39 | 47.99335 | 17.26875 | 17112 ft | 371 kts | 92° |
| 2026-04-24 09:39 | 47.99037 | 17.30699 | 17109 ft | 371 kts | 92° |
| 2026-04-24 09:40 | 47.98719 | 17.34529 | 17108 ft | 372 kts | 94° |
| 2026-04-24 09:40 | 47.98308 | 17.38352 | 17111 ft | 373 kts | 95° |
| 2026-04-24 09:40 | 47.97880 | 17.42169 | 17111 ft | 373 kts | 95° |
| 2026-04-24 09:40 | 47.97454 | 17.45942 | 17109 ft | 373 kts | 95° |
| 2026-04-24 09:41 | 47.97017 | 17.49811 | 17111 ft | 374 kts | 95° |
| 2026-04-24 09:41 | 47.96593 | 17.53585 | 17108 ft | 374 kts | 95° |
| 2026-04-24 09:41 | 47.96162 | 17.57410 | 17109 ft | 374 kts | 95° |
| 2026-04-24 09:41 | 47.95729 | 17.61233 | 17110 ft | 374 kts | 95° |
| 2026-04-24 09:42 | 47.95297 | 17.65057 | 17109 ft | 375 kts | 95° |
| 2026-04-24 09:42 | 47.94862 | 17.68887 | 17108 ft | 375 kts | 95° |
| 2026-04-24 09:42 | 47.94424 | 17.72722 | 17109 ft | 375 kts | 95° |
| 2026-04-24 09:42 | 47.93986 | 17.76549 | 17110 ft | 375 kts | 95° |
| 2026-04-24 09:43 | 47.93545 | 17.80379 | 17111 ft | 375 kts | 95° |
| 2026-04-24 09:43 | 47.93101 | 17.84217 | 17108 ft | 375 kts | 95° |
| 2026-04-24 09:43 | 47.92658 | 17.88045 | 17108 ft | 375 kts | 95° |
| 2026-04-24 09:43 | 47.92213 | 17.91880 | 17104 ft | 375 kts | 95° |
| 2026-04-24 09:44 | 47.91768 | 17.95705 | 17101 ft | 375 kts | 95° |
| 2026-04-24 09:44 | 47.91320 | 17.99536 | 17102 ft | 375 kts | 95° |
| 2026-04-24 09:44 | 47.90872 | 18.03359 | 17101 ft | 375 kts | 95° |
| 2026-04-24 09:44 | 47.90421 | 18.07198 | 17103 ft | 375 kts | 95° |
| 2026-04-24 09:45 | 47.89970 | 18.11026 | 17098 ft | 375 kts | 95° |
| 2026-04-24 09:45 | 47.89516 | 18.14864 | 17099 ft | 375 kts | 95° |
| 2026-04-24 09:45 | 47.89062 | 18.18690 | 17099 ft | 375 kts | 95° |
| 2026-04-24 09:45 | 47.88611 | 18.22476 | 17084 ft | 373 kts | 95° |
| 2026-04-24 09:46 | 47.88162 | 18.26236 | 16868 ft | 365 kts | 95° |
| 2026-04-24 09:46 | 47.87717 | 18.29956 | 16648 ft | 364 kts | 95° |
| 2026-04-24 09:46 | 47.87273 | 18.33664 | 16405 ft | 363 kts | 95° |
| 2026-04-24 09:46 | 47.86829 | 18.37357 | 16147 ft | 362 kts | 95° |
| 2026-04-24 09:47 | 47.86386 | 18.41031 | 15804 ft | 360 kts | 95° |
| 2026-04-24 09:47 | 47.85901 | 18.44695 | 15421 ft | 362 kts | 100° |
| 2026-04-24 09:47 | 47.84910 | 18.48159 | 15023 ft | 368 kts | 119° |
| 2026-04-24 09:47 | 47.83199 | 18.51000 | 14630 ft | 373 kts | 139° |
| 2026-04-24 09:48 | 47.81036 | 18.53158 | 14222 ft | 375 kts | 146° |
| 2026-04-24 09:48 | 47.78810 | 18.55168 | 13802 ft | 375 kts | 147° |
| 2026-04-24 09:48 | 47.76580 | 18.57209 | 13378 ft | 375 kts | 146° |
| 2026-04-24 09:48 | 47.74375 | 18.59267 | 12978 ft | 375 kts | 146° |
| 2026-04-24 09:49 | 47.72172 | 18.61342 | 12578 ft | 375 kts | 146° |
| 2026-04-24 09:49 | 47.69977 | 18.63425 | 12164 ft | 375 kts | 145° |
| 2026-04-24 09:49 | 47.67996 | 18.65827 | 11718 ft | 371 kts | 131° |
| 2026-04-24 09:49 | 47.66265 | 18.68670 | 11307 ft | 371 kts | 129° |
| 2026-04-24 09:50 | 47.64573 | 18.71510 | 10914 ft | 364 kts | 129° |
| 2026-04-24 09:50 | 47.62909 | 18.74283 | 10659 ft | 354 kts | 130° |
| 2026-04-24 09:50 | 47.61291 | 18.76960 | 10476 ft | 341 kts | 129° |
| 2026-04-24 09:50 | 47.59731 | 18.79529 | 10316 ft | 330 kts | 130° |
| 2026-04-24 09:51 | 47.58221 | 18.82008 | 10167 ft | 317 kts | 130° |
| 2026-04-24 09:51 | 47.56767 | 18.84392 | 9947 ft | 309 kts | 130° |
| 2026-04-24 09:51 | 47.55305 | 18.86781 | 9517 ft | 308 kts | 130° |
| 2026-04-24 09:51 | 47.53871 | 18.89129 | 9149 ft | 306 kts | 131° |
| 2026-04-24 09:52 | 47.52470 | 18.91420 | 8819 ft | 302 kts | 131° |
| 2026-04-24 09:52 | 47.51064 | 18.93718 | 8451 ft | 300 kts | 131° |
| 2026-04-24 09:52 | 47.49664 | 18.96001 | 8091 ft | 298 kts | 131° |
| 2026-04-24 09:52 | 47.48277 | 18.98265 | 7758 ft | 295 kts | 131° |
| 2026-04-24 09:53 | 47.46915 | 19.00486 | 7447 ft | 289 kts | 131° |
| 2026-04-24 09:53 | 47.45562 | 19.02687 | 7125 ft | 290 kts | 131° |
| 2026-04-24 09:53 | 47.44214 | 19.04888 | 6807 ft | 289 kts | 132° |
| 2026-04-24 09:53 | 47.42867 | 19.07072 | 6489 ft | 287 kts | 132° |
| 2026-04-24 09:54 | 47.41521 | 19.09255 | 6172 ft | 286 kts | 132° |
| 2026-04-24 09:54 | 47.40193 | 19.11406 | 5884 ft | 280 kts | 132° |
| 2026-04-24 09:54 | 47.38908 | 19.13489 | 5662 ft | 269 kts | 132° |
| 2026-04-24 09:54 | 47.37674 | 19.15486 | 5510 ft | 258 kts | 132° |
| 2026-04-24 09:55 | 47.36493 | 19.17398 | 5358 ft | 246 kts | 132° |
| 2026-04-24 09:55 | 47.35380 | 19.19198 | 5122 ft | 235 kts | 133° |
| 2026-04-24 09:55 | 47.34305 | 19.20933 | 4884 ft | 225 kts | 133° |
| 2026-04-24 09:55 | 47.33256 | 19.22635 | 4694 ft | 223 kts | 133° |
| 2026-04-24 09:56 | 47.32208 | 19.24329 | 4707 ft | 224 kts | 133° |
| 2026-04-24 09:56 | 47.31198 | 19.25963 | 4765 ft | 204 kts | 133° |
| 2026-04-24 09:56 | 47.30289 | 19.27438 | 4743 ft | 184 kts | 132° |
| 2026-04-24 09:56 | 47.29459 | 19.28783 | 4768 ft | 177 kts | 133° |
| 2026-04-24 09:57 | 47.28632 | 19.30121 | 4746 ft | 177 kts | 133° |
| 2026-04-24 09:57 | 47.27827 | 19.31495 | 4728 ft | 177 kts | 122° |
| 2026-04-24 09:57 | 47.27618 | 19.33220 | 4570 ft | 175 kts | 73° |
| 2026-04-24 09:57 | 47.28320 | 19.34609 | 4341 ft | 171 kts | 34° |
| 2026-04-24 09:58 | 47.29270 | 19.35655 | 4094 ft | 170 kts | 37° |
| 2026-04-24 09:58 | 47.30167 | 19.36795 | 3816 ft | 170 kts | 40° |
| 2026-04-24 09:58 | 47.31046 | 19.37964 | 3528 ft | 170 kts | 40° |
| 2026-04-24 09:58 | 47.31991 | 19.38976 | 3222 ft | 167 kts | 20° |
| 2026-04-24 09:59 | 47.33121 | 19.39113 | 2937 ft | 165 kts | 347° |
| 2026-04-24 09:59 | 47.34192 | 19.38602 | 2674 ft | 162 kts | 339° |
| 2026-04-24 09:59 | 47.35255 | 19.38076 | 2390 ft | 160 kts | 340° |
| 2026-04-24 09:59 | 47.36289 | 19.37588 | 2211 ft | 149 kts | 340° |
| 2026-04-24 10:00 | 47.37208 | 19.37157 | 1885 ft | 134 kts | 338° |
| 2026-04-24 10:00 | 47.37986 | 19.36465 | 1738 ft | 130 kts | 312° |
| 2026-04-24 10:00 | 47.38553 | 19.35440 | 1668 ft | 128 kts | 311° |
| 2026-04-24 10:00 | 47.39138 | 19.34449 | 1551 ft | 127 kts | 314° |
| 2026-04-24 10:01 | 47.39736 | 19.33483 | 1356 ft | 127 kts | 314° |
| 2026-04-24 10:01 | 47.40353 | 19.32552 | 1109 ft | 127 kts | 315° |
| 2026-04-24 10:01 | 47.40944 | 19.31579 | 902 ft | 128 kts | 311° |
| 2026-04-24 10:01 | 47.41539 | 19.30598 | 711 ft | 129 kts | 314° |
| 2026-04-24 10:02 | 47.42152 | 19.29613 | 545 ft | 130 kts | 315° |
| 2026-04-24 10:02 | 47.42744 | 19.28645 | 455 ft | 120 kts | 314° |
| 2026-04-24 10:02 | 47.43187 | 19.27948 | 467 ft | 66 kts | 312° |
| 2026-04-24 10:02 | 47.43443 | 19.27534 | 474 ft | 49 kts | 313° |
| 2026-04-24 10:03 | 47.43658 | 19.27180 | 476 ft | 42 kts | 307° |
| 2026-04-24 10:03 | 47.43745 | 19.26912 | 472 ft | 20 kts | 282° |
| 2026-04-24 10:03 | 47.43767 | 19.26760 | 467 ft | 12 kts | 283° |
| 2026-04-24 10:03 | 47.43785 | 19.26638 | 465 ft | 13 kts | 282° |
| 2026-04-24 10:04 | 47.43803 | 19.26520 | 464 ft | 0 kts | 282° |
| 2026-04-24 10:04 | 47.43803 | 19.26514 | 463 ft | 2 kts | 282° |
| 2026-04-24 10:04 | 47.43809 | 19.26479 | 464 ft | 5 kts | 282° |
| 2026-04-24 10:04 | 47.43818 | 19.26414 | 463 ft | 8 kts | 282° |
| 2026-04-24 10:05 | 47.43847 | 19.26326 | 463 ft | 11 kts | 307° |
| 2026-04-24 10:05 | 47.43905 | 19.26229 | 463 ft | 14 kts | 312° |
| 2026-04-24 10:05 | 47.43898 | 19.26130 | 462 ft | 12 kts | 222° |
| 2026-04-24 10:05 | 47.43827 | 19.26035 | 462 ft | 15 kts | 222° |
| 2026-04-24 10:06 | 47.43741 | 19.25920 | 461 ft | 18 kts | 222° |
| 2026-04-24 10:06 | 47.43559 | 19.25676 | 460 ft | 18 kts | 222° |
| 2026-04-24 10:06 | 47.43459 | 19.25541 | 463 ft | 20 kts | 222° |
| 2026-04-24 10:07 | 47.43390 | 19.25450 | 463 ft | 9 kts | 221° |
| 2026-04-24 10:07 | 47.43329 | 19.25456 | 462 ft | 11 kts | 133° |
| 2026-04-24 10:07 | 47.43270 | 19.25549 | 461 ft | 14 kts | 132° |
| 2026-04-24 10:07 | 47.43198 | 19.25665 | 461 ft | 17 kts | 132° |
| 2026-04-24 10:08 | 47.43128 | 19.25779 | 463 ft | 13 kts | 132° |
| 2026-04-24 10:08 | 47.43096 | 19.25850 | 463 ft | 7 kts | 86° |
| 2026-04-24 10:08 | 47.43123 | 19.25898 | 462 ft | 5 kts | 42° |
| 2026-04-24 10:08 | 47.43139 | 19.25921 | 463 ft | 2 kts | 42° |
| 2026-04-24 10:09 | 47.43144 | 19.25927 | 463 ft | 0 kts | 42° |